KR-0658 weather

Hyundai Camelia Haute Apartments Heliports
Busan, Busan Gwang'yeogsi, South Korea

Public forecast

Using degrees Celsius for public forecast. Weather courtesy of forecast.io.

METAR (pilot weather report)

Closest report is Gimhae International Airport, 10.5 nm (19.4 km) W. Retrieved 2019/08/22 08:00 UTC (40 minutes ago):

RKPK 220800Z 23008KT 9999 FEW017 SCT035 BKN200 29/25 Q1004

TAF (pilot weather forecast)

Closest forecast is Gimhae International Airport, 10.5 nm (19.4 km) W. Retrieved 2019/08/22 06:00 UTC (3 hours ago):

TAF RKPK 220500Z 2206/2312 21008KT 9999 BKN015 BKN030 TN24/2220Z TX31/2305Z BECMG 2207/2208 SCT015 BKN030 BECMG 2209/2210 30006KT BECMG 2211/2212 33006KT SCT030 BKN200 BECMG 2302/2303 18008KT BECMG 2309/2310 33006KT